Time;durP1;ratioP1;P1;durP2;ratioP2;P2;SDS_P1;SDS_P2;PMS_P1;PMS_P2;Temp;Humidity;BMP_temperature;BMP_pressure;BME280_temperature;BME280_humidity;BME280_pressure;Samples;Min_cycle;Max_cycle;Signal;HPM_P1;HPM_P2
2021/01/14 21:27:41;;;;;;;18.47;14.70;;;2.00;99.90;;;;;;6155862;22;885461;-75
2021/01/14 21:30:10;;;;;;;17.83;13.97;;;2.00;99.90;;;;;;6182006;23;20618;-75
2021/01/14 21:32:38;;;;;;;16.63;14.83;;;2.00;99.90;;;;;;6156974;23;20183;-74
2021/01/14 21:47:28;;;;;;;27.20;20.50;;;2.00;99.90;;;;;;5130797;27;20579;-78
2021/01/14 21:49:54;;;;;;;18.63;16.27;;;2.10;99.90;;;;;;5067621;27;74129;-78
2021/01/14 21:52:26;;;;;;;20.97;16.33;;;2.10;99.90;;;;;;5096643;28;20205;-77
2021/01/14 21:54:53;;;;;;;22.03;15.93;;;2.10;99.90;;;;;;5086884;28;20216;-77
2021/01/14 21:57:20;;;;;;;21.33;18.10;;;2.10;99.90;;;;;;5090158;28;20229;-83
2021/01/14 21:59:47;;;;;;;19.50;16.47;;;2.10;99.90;;;;;;5083744;28;20289;-83
2021/01/14 22:02:14;;;;;;;19.10;17.13;;;2.00;99.90;;;;;;5089793;28;20305;-84
2021/01/14 22:04:42;;;;;;;18.73;15.83;;;2.10;99.90;;;;;;5102401;28;20204;-83
2021/01/14 22:07:08;;;;;;;18.83;16.33;;;2.00;99.90;;;;;;5100178;28;20210;-83
2021/01/14 22:09:35;;;;;;;17.40;15.50;;;2.00;99.90;;;;;;5102789;28;20315;-84
2021/01/14 22:12:02;;;;;;;15.70;14.00;;;2.20;99.90;;;;;;5103292;28;20216;-85
2021/01/14 22:14:28;;;;;;;21.90;17.63;;;2.30;99.90;;;;;;5102911;28;20243;-85
2021/01/14 22:16:55;;;;;;;18.70;15.73;;;2.20;99.90;;;;;;5103660;28;20233;-84
2021/01/14 22:19:22;;;;;;;22.43;16.63;;;2.20;99.90;;;;;;5102285;28;20261;-84
2021/01/14 22:21:53;;;;;;;24.47;17.40;;;2.00;99.90;;;;;;5093570;28;20191;-85
2021/01/14 22:24:20;;;;;;;25.10;22.53;;;2.10;99.90;;;;;;5100894;28;20205;-85
2021/01/14 22:26:46;;;;;;;23.90;18.37;;;2.10;99.90;;;;;;5100729;28;20220;-85
2021/01/14 22:29:13;;;;;;;19.07;15.97;;;2.00;99.90;;;;;;5097387;28;20240;-84
2021/01/14 22:31:41;;;;;;;16.90;14.80;;;2.10;99.90;;;;;;5095176;28;20202;-83
2021/01/14 22:34:10;;;;;;;18.70;15.83;;;2.00;99.90;;;;;;5095363;28;20213;-84
2021/01/14 22:36:38;;;;;;;25.07;16.27;;;2.30;99.90;;;;;;5090240;28;20226;-83
2021/01/14 22:39:06;;;;;;;20.03;16.50;;;2.00;99.90;;;;;;5091047;28;20272;-83
2021/01/14 22:41:33;;;;;;;22.13;18.27;;;2.10;99.90;;;;;;5095935;28;20717;-84
2021/01/14 22:44:00;;;;;;;22.77;16.47;;;2.10;99.90;;;;;;5079161;28;20708;-84
2021/01/14 22:46:27;;;;;;;17.33;15.53;;;2.10;99.90;;;;;;5092776;28;20264;-83
2021/01/14 22:48:53;;;;;;;25.80;17.57;;;2.20;99.90;;;;;;5082492;28;20590;-84
2021/01/14 22:51:25;;;;;;;22.10;16.80;;;2.20;99.90;;;;;;5075873;28;20215;-84
2021/01/14 22:53:52;;;;;;;19.67;16.97;;;2.20;99.90;;;;;;5075011;28;20246;-84
2021/01/14 22:56:30;;;;;;;21.43;16.93;;;2.00;99.90;;;;;;5057544;28;20227;-84
2021/01/14 22:58:57;;;;;;;19.90;15.67;;;2.10;99.90;;;;;;5090677;28;20198;-86
2021/01/14 23:01:30;;;;;;;21.80;18.27;;;2.10;99.90;;;;;;5075522;28;20203;-84
2021/01/14 23:03:57;;;;;;;19.17;15.13;;;2.30;99.90;;;;;;5072846;28;20228;-84
2021/01/14 23:06:24;;;;;;;21.73;16.70;;;2.00;99.90;;;;;;5080273;28;20240;-85
2021/01/14 23:08:51;;;;;;;27.03;18.23;;;2.10;99.90;;;;;;5087090;28;20531;-84
2021/01/14 23:11:17;;;;;;;25.70;16.77;;;2.20;99.90;;;;;;5089047;28;20202;-84
2021/01/14 23:13:45;;;;;;;20.63;16.57;;;2.20;99.90;;;;;;5089028;28;20270;-84
2021/01/14 23:16:12;;;;;;;19.87;15.93;;;2.10;99.90;;;;;;5068794;28;20229;-83
2021/01/14 23:18:39;;;;;;;23.60;17.97;;;2.00;99.90;;;;;;5070423;28;20210;-84
2021/01/14 23:21:06;;;;;;;19.40;16.70;;;2.10;99.90;;;;;;5069434;28;20665;-83
2021/01/14 23:23:33;;;;;;;20.53;16.43;;;2.10;99.90;;;;;;5051985;28;20207;-83
2021/01/14 23:26:02;;;;;;;23.17;17.50;;;2.10;99.90;;;;;;5051316;28;20245;-85
2021/01/14 23:28:28;;;;;;;18.97;16.73;;;2.00;99.90;;;;;;5080464;28;20210;-83
2021/01/14 23:30:56;;;;;;;21.47;18.13;;;2.10;99.90;;;;;;5068981;28;20205;-83
2021/01/14 23:33:22;;;;;;;25.33;18.03;;;2.20;99.90;;;;;;5068140;28;20206;-83
2021/01/14 23:35:49;;;;;;;21.30;16.90;;;2.10;99.90;;;;;;5086744;28;20233;-83
2021/01/14 23:38:16;;;;;;;19.80;17.70;;;2.30;99.90;;;;;;5085735;28;20202;-83
2021/01/14 23:40:42;;;;;;;24.27;17.70;;;2.20;99.90;;;;;;5087446;28;20201;-84
2021/01/14 23:43:09;;;;;;;24.67;18.03;;;2.20;99.90;;;;;;5097852;28;20623;-83
2021/01/14 23:45:36;;;;;;;21.63;16.10;;;2.10;99.90;;;;;;5073681;28;20211;-83
2021/01/14 23:48:04;;;;;;;22.07;16.67;;;2.10;99.90;;;;;;5077992;28;20201;-82
2021/01/14 23:50:31;;;;;;;21.63;17.20;;;2.10;99.90;;;;;;5084768;28;20202;-83
2021/01/14 23:52:57;;;;;;;22.10;17.23;;;2.10;99.90;;;;;;5085785;28;20202;-84
2021/01/14 23:55:24;;;;;;;23.40;16.40;;;2.10;99.90;;;;;;5088501;28;20211;-85
2021/01/14 23:57:51;;;;;;;19.70;16.87;;;2.00;99.90;;;;;;5095562;28;20190;-86
